sensor_id;sensor_type;location;lat;lon;timestamp;temperature;humidity
59556;DHT22;45374;52.746;6.304;2023-11-22T00:00:10;4.00;99.90
59556;DHT22;45374;52.746;6.304;2023-11-22T00:02:36;4.00;99.90
59556;DHT22;45374;52.746;6.304;2023-11-22T00:05:03;4.00;99.90
59556;DHT22;45374;52.746;6.304;2023-11-22T00:07:28;4.00;99.90
59556;DHT22;45374;52.746;6.304;2023-11-22T00:09:55;4.10;99.90
59556;DHT22;45374;52.746;6.304;2023-11-22T00:12:21;4.00;99.90
59556;DHT22;45374;52.746;6.304;2023-11-22T00:14:48;4.10;99.90
59556;DHT22;45374;52.746;6.304;2023-11-22T00:17:14;4.00;99.90
59556;DHT22;45374;52.746;6.304;2023-11-22T00:19:40;4.00;99.90
59556;DHT22;45374;52.746;6.304;2023-11-22T00:22:06;4.00;99.90
59556;DHT22;45374;52.746;6.304;2023-11-22T00:24:41;4.00;99.90
59556;DHT22;45374;52.746;6.304;2023-11-22T00:27:10;4.00;99.90
59556;DHT22;45374;52.746;6.304;2023-11-22T00:29:36;4.00;99.90
59556;DHT22;45374;52.746;6.304;2023-11-22T00:32:01;4.00;99.90
59556;DHT22;45374;52.746;6.304;2023-11-22T00:34:27;4.00;99.90
59556;DHT22;45374;52.746;6.304;2023-11-22T00:36:52;4.00;99.90
59556;DHT22;45374;52.746;6.304;2023-11-22T00:39:18;4.00;99.90
59556;DHT22;45374;52.746;6.304;2023-11-22T00:41:44;3.90;99.90
59556;DHT22;45374;52.746;6.304;2023-11-22T00:44:11;3.80;99.90
59556;DHT22;45374;52.746;6.304;2023-11-22T00:46:36;3.80;99.90
59556;DHT22;45374;52.746;6.304;2023-11-22T00:49:05;3.70;99.90
59556;DHT22;45374;52.746;6.304;2023-11-22T00:51:31;3.70;99.90
59556;DHT22;45374;52.746;6.304;2023-11-22T00:53:58;3.70;99.90
59556;DHT22;45374;52.746;6.304;2023-11-22T00:56:24;3.70;99.90
59556;DHT22;45374;52.746;6.304;2023-11-22T00:58:49;3.60;99.90
59556;DHT22;45374;52.746;6.304;2023-11-22T01:01:16;3.60;99.90
59556;DHT22;45374;52.746;6.304;2023-11-22T01:03:42;3.50;99.90
59556;DHT22;45374;52.746;6.304;2023-11-22T01:06:07;3.50;99.90
59556;DHT22;45374;52.746;6.304;2023-11-22T01:08:33;3.50;99.90
59556;DHT22;45374;52.746;6.304;2023-11-22T01:10:58;3.40;99.90
59556;DHT22;45374;52.746;6.304;2023-11-22T01:13:25;3.40;99.90
59556;DHT22;45374;52.746;6.304;2023-11-22T01:15:51;3.30;99.90
59556;DHT22;45374;52.746;6.304;2023-11-22T01:18:16;3.30;99.90
59556;DHT22;45374;52.746;6.304;2023-11-22T01:20:42;3.20;99.90
59556;DHT22;45374;52.746;6.304;2023-11-22T01:23:07;3.20;99.90
59556;DHT22;45374;52.746;6.304;2023-11-22T01:25:33;3.10;99.90
59556;DHT22;45374;52.746;6.304;2023-11-22T01:27:58;3.00;99.90
59556;DHT22;45374;52.746;6.304;2023-11-22T01:30:24;3.00;99.90
59556;DHT22;45374;52.746;6.304;2023-11-22T01:32:49;3.00;99.90
59556;DHT22;45374;52.746;6.304;2023-11-22T01:35:15;3.10;99.90
59556;DHT22;45374;52.746;6.304;2023-11-22T01:37:41;3.00;99.90
59556;DHT22;45374;52.746;6.304;2023-11-22T01:40:08;3.00;99.90
59556;DHT22;45374;52.746;6.304;2023-11-22T01:42:34;2.90;99.90
59556;DHT22;45374;52.746;6.304;2023-11-22T01:45:02;3.00;99.90
59556;DHT22;45374;52.746;6.304;2023-11-22T01:47:29;2.90;99.90
59556;DHT22;45374;52.746;6.304;2023-11-22T01:49:54;2.90;99.90
59556;DHT22;45374;52.746;6.304;2023-11-22T01:52:20;2.80;99.90
59556;DHT22;45374;52.746;6.304;2023-11-22T01:54:45;2.80;99.90
59556;DHT22;45374;52.746;6.304;2023-11-22T01:57:11;2.80;99.90
59556;DHT22;45374;52.746;6.304;2023-11-22T01:59:38;2.80;99.90
59556;DHT22;45374;52.746;6.304;2023-11-22T02:02:04;2.60;99.90
59556;DHT22;45374;52.746;6.304;2023-11-22T02:04:29;2.60;99.90
59556;DHT22;45374;52.746;6.304;2023-11-22T02:06:55;2.40;99.90
59556;DHT22;45374;52.746;6.304;2023-11-22T02:09:21;2.30;99.90
59556;DHT22;45374;52.746;6.304;2023-11-22T02:11:47;2.30;99.90
59556;DHT22;45374;52.746;6.304;2023-11-22T02:14:14;2.30;99.90
59556;DHT22;45374;52.746;6.304;2023-11-22T02:16:40;2.30;99.90
59556;DHT22;45374;52.746;6.304;2023-11-22T02:19:14;2.30;99.90
59556;DHT22;45374;52.746;6.304;2023-11-22T02:21:40;2.20;99.90
59556;DHT22;45374;52.746;6.304;2023-11-22T02:24:06;2.20;99.90
59556;DHT22;45374;52.746;6.304;2023-11-22T02:26:32;2.20;99.90
59556;DHT22;45374;52.746;6.304;2023-11-22T02:28:59;2.20;99.90
59556;DHT22;45374;52.746;6.304;2023-11-22T02:31:25;2.20;99.90
59556;DHT22;45374;52.746;6.304;2023-11-22T02:33:51;2.20;99.90
59556;DHT22;45374;52.746;6.304;2023-11-22T02:36:16;2.20;99.90
59556;DHT22;45374;52.746;6.304;2023-11-22T02:38:42;2.20;99.90
59556;DHT22;45374;52.746;6.304;2023-11-22T02:41:09;2.20;99.90
59556;DHT22;45374;52.746;6.304;2023-11-22T02:43:35;2.20;99.90
59556;DHT22;45374;52.746;6.304;2023-11-22T02:46:01;2.20;99.90
59556;DHT22;45374;52.746;6.304;2023-11-22T02:48:28;2.30;99.90
59556;DHT22;45374;52.746;6.304;2023-11-22T02:50:53;2.30;99.90
59556;DHT22;45374;52.746;6.304;2023-11-22T02:53:19;2.30;99.90
59556;DHT22;45374;52.746;6.304;2023-11-22T02:55:45;2.20;99.90
59556;DHT22;45374;52.746;6.304;2023-11-22T02:58:10;2.20;99.90
59556;DHT22;45374;52.746;6.304;2023-11-22T03:00:39;2.10;99.90
59556;DHT22;45374;52.746;6.304;2023-11-22T03:03:05;2.10;99.90
59556;DHT22;45374;52.746;6.304;2023-11-22T03:05:35;2.00;99.90
59556;DHT22;45374;52.746;6.304;2023-11-22T03:08:03;2.00;99.90
59556;DHT22;45374;52.746;6.304;2023-11-22T03:10:28;2.00;99.90
59556;DHT22;45374;52.746;6.304;2023-11-22T03:12:55;2.00;99.90
59556;DHT22;45374;52.746;6.304;2023-11-22T03:15:21;2.00;99.90
59556;DHT22;45374;52.746;6.304;2023-11-22T03:17:46;2.00;99.90
59556;DHT22;45374;52.746;6.304;2023-11-22T03:20:14;2.00;99.90
59556;DHT22;45374;52.746;6.304;2023-11-22T03:22:41;2.10;99.90
59556;DHT22;45374;52.746;6.304;2023-11-22T03:25:09;2.10;99.90
59556;DHT22;45374;52.746;6.304;2023-11-22T03:27:35;2.10;99.90
59556;DHT22;45374;52.746;6.304;2023-11-22T03:30:01;2.00;99.90
59556;DHT22;45374;52.746;6.304;2023-11-22T03:32:27;2.00;99.90
59556;DHT22;45374;52.746;6.304;2023-11-22T03:34:53;1.90;99.90
59556;DHT22;45374;52.746;6.304;2023-11-22T03:37:19;1.90;99.90
59556;DHT22;45374;52.746;6.304;2023-11-22T03:39:45;1.80;99.90
59556;DHT22;45374;52.746;6.304;2023-11-22T03:42:17;1.80;99.90
59556;DHT22;45374;52.746;6.304;2023-11-22T03:44:42;1.80;99.90
59556;DHT22;45374;52.746;6.304;2023-11-22T03:47:10;1.70;99.90
59556;DHT22;45374;52.746;6.304;2023-11-22T03:49:37;1.70;99.90
59556;DHT22;45374;52.746;6.304;2023-11-22T03:52:02;1.60;99.90
59556;DHT22;45374;52.746;6.304;2023-11-22T03:54:28;1.60;99.90
59556;DHT22;45374;52.746;6.304;2023-11-22T03:56:53;1.60;99.90
59556;DHT22;45374;52.746;6.304;2023-11-22T03:59:19;1.60;99.90
59556;DHT22;45374;52.746;6.304;2023-11-22T04:01:44;1.60;99.90
59556;DHT22;45374;52.746;6.304;2023-11-22T04:04:10;1.60;99.90
59556;DHT22;45374;52.746;6.304;2023-11-22T04:06:36;1.60;99.90
59556;DHT22;45374;52.746;6.304;2023-11-22T04:09:02;1.60;99.90
59556;DHT22;45374;52.746;6.304;2023-11-22T04:11:28;1.60;99.90
59556;DHT22;45374;52.746;6.304;2023-11-22T04:13:55;1.60;99.90
59556;DHT22;45374;52.746;6.304;2023-11-22T04:16:20;1.50;99.90
59556;DHT22;45374;52.746;6.304;2023-11-22T04:18:46;1.40;99.90
59556;DHT22;45374;52.746;6.304;2023-11-22T04:21:12;1.20;99.90
59556;DHT22;45374;52.746;6.304;2023-11-22T04:23:37;1.00;99.90
59556;DHT22;45374;52.746;6.304;2023-11-22T04:26:03;0.90;99.90
59556;DHT22;45374;52.746;6.304;2023-11-22T04:28:29;0.80;99.90
59556;DHT22;45374;52.746;6.304;2023-11-22T04:30:55;0.80;99.90
59556;DHT22;45374;52.746;6.304;2023-11-22T04:33:22;0.80;99.90
59556;DHT22;45374;52.746;6.304;2023-11-22T04:35:49;0.70;99.90
59556;DHT22;45374;52.746;6.304;2023-11-22T04:38:14;0.60;99.90
59556;DHT22;45374;52.746;6.304;2023-11-22T04:40:40;0.60;99.90
59556;DHT22;45374;52.746;6.304;2023-11-22T04:43:07;0.60;99.90
59556;DHT22;45374;52.746;6.304;2023-11-22T04:45:33;0.60;99.90
59556;DHT22;45374;52.746;6.304;2023-11-22T04:47:59;0.60;99.90
59556;DHT22;45374;52.746;6.304;2023-11-22T04:50:24;0.60;99.90
59556;DHT22;45374;52.746;6.304;2023-11-22T04:52:50;0.60;99.90
59556;DHT22;45374;52.746;6.304;2023-11-22T04:55:16;0.60;99.90
59556;DHT22;45374;52.746;6.304;2023-11-22T04:57:42;0.60;99.90
59556;DHT22;45374;52.746;6.304;2023-11-22T05:00:08;0.60;99.90
59556;DHT22;45374;52.746;6.304;2023-11-22T05:02:35;0.60;99.90
59556;DHT22;45374;52.746;6.304;2023-11-22T05:05:01;0.60;99.90
59556;DHT22;45374;52.746;6.304;2023-11-22T05:07:26;0.70;99.90
59556;DHT22;45374;52.746;6.304;2023-11-22T05:09:52;0.70;99.90
59556;DHT22;45374;52.746;6.304;2023-11-22T05:12:17;0.80;99.90
59556;DHT22;45374;52.746;6.304;2023-11-22T05:14:43;0.80;99.90
59556;DHT22;45374;52.746;6.304;2023-11-22T05:17:10;0.90;99.90
59556;DHT22;45374;52.746;6.304;2023-11-22T05:19:36;0.90;99.90
59556;DHT22;45374;52.746;6.304;2023-11-22T05:22:01;0.90;99.90
59556;DHT22;45374;52.746;6.304;2023-11-22T05:24:27;0.90;99.90
59556;DHT22;45374;52.746;6.304;2023-11-22T05:26:53;0.90;99.90
59556;DHT22;45374;52.746;6.304;2023-11-22T05:29:18;1.00;99.90
59556;DHT22;45374;52.746;6.304;2023-11-22T05:31:44;1.00;99.90
59556;DHT22;45374;52.746;6.304;2023-11-22T05:34:10;1.00;99.90
59556;DHT22;45374;52.746;6.304;2023-11-22T05:36:36;1.10;99.90
59556;DHT22;45374;52.746;6.304;2023-11-22T05:39:01;1.00;99.90
59556;DHT22;45374;52.746;6.304;2023-11-22T05:41:29;1.10;99.90
59556;DHT22;45374;52.746;6.304;2023-11-22T05:43:55;1.10;99.90
59556;DHT22;45374;52.746;6.304;2023-11-22T05:46:21;1.10;99.90
59556;DHT22;45374;52.746;6.304;2023-11-22T05:48:56;1.10;99.90
59556;DHT22;45374;52.746;6.304;2023-11-22T05:51:22;1.00;99.90
59556;DHT22;45374;52.746;6.304;2023-11-22T05:53:48;1.00;99.90
59556;DHT22;45374;52.746;6.304;2023-11-22T05:56:13;1.00;99.90
59556;DHT22;45374;52.746;6.304;2023-11-22T05:58:40;1.00;99.90
59556;DHT22;45374;52.746;6.304;2023-11-22T06:01:06;1.10;99.90
59556;DHT22;45374;52.746;6.304;2023-11-22T06:03:32;1.10;99.90
59556;DHT22;45374;52.746;6.304;2023-11-22T06:05:58;1.10;99.90
59556;DHT22;45374;52.746;6.304;2023-11-22T06:08:24;1.10;99.90
59556;DHT22;45374;52.746;6.304;2023-11-22T06:10:50;1.10;99.90
59556;DHT22;45374;52.746;6.304;2023-11-22T06:13:17;1.10;99.90
59556;DHT22;45374;52.746;6.304;2023-11-22T06:15:43;1.10;99.90
59556;DHT22;45374;52.746;6.304;2023-11-22T06:18:09;1.10;99.90
59556;DHT22;45374;52.746;6.304;2023-11-22T06:20:34;1.10;99.90
59556;DHT22;45374;52.746;6.304;2023-11-22T06:23:00;1.00;99.90
59556;DHT22;45374;52.746;6.304;2023-11-22T06:25:25;1.10;99.90
59556;DHT22;45374;52.746;6.304;2023-11-22T06:27:52;1.00;99.90
59556;DHT22;45374;52.746;6.304;2023-11-22T06:30:18;1.00;99.90
59556;DHT22;45374;52.746;6.304;2023-11-22T06:32:43;1.00;99.90
59556;DHT22;45374;52.746;6.304;2023-11-22T06:35:10;1.00;99.90
59556;DHT22;45374;52.746;6.304;2023-11-22T06:37:36;0.90;99.90
59556;DHT22;45374;52.746;6.304;2023-11-22T06:40:03;0.90;99.90
59556;DHT22;45374;52.746;6.304;2023-11-22T06:42:29;0.90;99.90
59556;DHT22;45374;52.746;6.304;2023-11-22T06:44:54;0.80;99.90
59556;DHT22;45374;52.746;6.304;2023-11-22T06:47:23;0.80;99.90
59556;DHT22;45374;52.746;6.304;2023-11-22T06:49:49;0.80;99.90
59556;DHT22;45374;52.746;6.304;2023-11-22T06:52:14;0.80;99.90
59556;DHT22;45374;52.746;6.304;2023-11-22T06:54:40;0.90;99.90
59556;DHT22;45374;52.746;6.304;2023-11-22T06:57:07;0.90;99.90
59556;DHT22;45374;52.746;6.304;2023-11-22T06:59:33;0.90;99.90
59556;DHT22;45374;52.746;6.304;2023-11-22T07:01:58;0.90;99.90
59556;DHT22;45374;52.746;6.304;2023-11-22T07:04:24;0.90;99.90
59556;DHT22;45374;52.746;6.304;2023-11-22T07:06:49;0.90;99.90
59556;DHT22;45374;52.746;6.304;2023-11-22T07:09:15;0.90;99.90
59556;DHT22;45374;52.746;6.304;2023-11-22T07:11:41;1.00;99.90
59556;DHT22;45374;52.746;6.304;2023-11-22T07:14:09;1.00;99.90
59556;DHT22;45374;52.746;6.304;2023-11-22T07:16:35;1.00;99.90
59556;DHT22;45374;52.746;6.304;2023-11-22T07:19:01;1.00;99.90
59556;DHT22;45374;52.746;6.304;2023-11-22T07:21:29;1.10;99.90
59556;DHT22;45374;52.746;6.304;2023-11-22T07:23:55;1.10;99.90
59556;DHT22;45374;52.746;6.304;2023-11-22T07:26:21;1.10;99.90
59556;DHT22;45374;52.746;6.304;2023-11-22T07:28:47;1.20;99.90
59556;DHT22;45374;52.746;6.304;2023-11-22T07:31:12;1.20;99.90
59556;DHT22;45374;52.746;6.304;2023-11-22T07:33:38;1.20;99.90
59556;DHT22;45374;52.746;6.304;2023-11-22T07:36:07;1.20;99.90
59556;DHT22;45374;52.746;6.304;2023-11-22T07:38:33;1.30;99.90
59556;DHT22;45374;52.746;6.304;2023-11-22T07:40:59;1.30;99.90
59556;DHT22;45374;52.746;6.304;2023-11-22T07:43:25;1.30;99.90
59556;DHT22;45374;52.746;6.304;2023-11-22T07:45:51;1.30;99.90
59556;DHT22;45374;52.746;6.304;2023-11-22T07:48:17;1.40;99.90
59556;DHT22;45374;52.746;6.304;2023-11-22T07:50:43;1.40;99.90
59556;DHT22;45374;52.746;6.304;2023-11-22T07:53:09;1.50;99.90
59556;DHT22;45374;52.746;6.304;2023-11-22T07:55:40;1.50;99.90
59556;DHT22;45374;52.746;6.304;2023-11-22T07:58:07;1.60;99.90
59556;DHT22;45374;52.746;6.304;2023-11-22T08:00:36;1.60;99.90
59556;DHT22;45374;52.746;6.304;2023-11-22T08:03:02;1.60;99.90
59556;DHT22;45374;52.746;6.304;2023-11-22T08:05:29;1.70;99.90
59556;DHT22;45374;52.746;6.304;2023-11-22T08:07:54;1.70;99.90
59556;DHT22;45374;52.746;6.304;2023-11-22T08:10:20;1.80;99.90
59556;DHT22;45374;52.746;6.304;2023-11-22T08:12:47;1.80;99.90
59556;DHT22;45374;52.746;6.304;2023-11-22T08:15:14;1.80;99.90
59556;DHT22;45374;52.746;6.304;2023-11-22T08:17:40;1.90;99.90
59556;DHT22;45374;52.746;6.304;2023-11-22T08:20:06;1.90;99.90
59556;DHT22;45374;52.746;6.304;2023-11-22T08:22:37;1.90;99.90
59556;DHT22;45374;52.746;6.304;2023-11-22T08:25:04;2.00;99.90
59556;DHT22;45374;52.746;6.304;2023-11-22T08:27:30;2.10;99.90
59556;DHT22;45374;52.746;6.304;2023-11-22T08:29:57;2.10;99.90
59556;DHT22;45374;52.746;6.304;2023-11-22T08:32:22;2.20;99.90
59556;DHT22;45374;52.746;6.304;2023-11-22T08:34:50;2.20;99.90
59556;DHT22;45374;52.746;6.304;2023-11-22T08:37:17;2.30;99.90
59556;DHT22;45374;52.746;6.304;2023-11-22T08:39:42;2.30;99.90
59556;DHT22;45374;52.746;6.304;2023-11-22T08:42:08;2.40;99.90
59556;DHT22;45374;52.746;6.304;2023-11-22T08:44:38;2.40;99.90
59556;DHT22;45374;52.746;6.304;2023-11-22T08:47:03;2.40;99.90
59556;DHT22;45374;52.746;6.304;2023-11-22T08:49:29;2.50;99.90
59556;DHT22;45374;52.746;6.304;2023-11-22T08:51:56;2.50;99.90
59556;DHT22;45374;52.746;6.304;2023-11-22T08:54:22;2.60;99.90
59556;DHT22;45374;52.746;6.304;2023-11-22T08:56:47;2.60;99.90
59556;DHT22;45374;52.746;6.304;2023-11-22T08:59:13;2.70;99.90
59556;DHT22;45374;52.746;6.304;2023-11-22T09:01:39;2.70;99.90
59556;DHT22;45374;52.746;6.304;2023-11-22T09:04:06;2.80;99.90
59556;DHT22;45374;52.746;6.304;2023-11-22T09:06:33;2.80;99.90
59556;DHT22;45374;52.746;6.304;2023-11-22T09:09:00;2.80;99.90
59556;DHT22;45374;52.746;6.304;2023-11-22T09:11:26;2.90;99.90
59556;DHT22;45374;52.746;6.304;2023-11-22T09:13:51;2.90;99.90
59556;DHT22;45374;52.746;6.304;2023-11-22T09:16:19;3.00;99.90
59556;DHT22;45374;52.746;6.304;2023-11-22T09:18:47;3.10;99.90
59556;DHT22;45374;52.746;6.304;2023-11-22T09:21:13;3.10;99.90
59556;DHT22;45374;52.746;6.304;2023-11-22T09:23:39;3.20;99.90
59556;DHT22;45374;52.746;6.304;2023-11-22T09:26:05;3.20;99.90
59556;DHT22;45374;52.746;6.304;2023-11-22T09:28:30;3.30;99.90
59556;DHT22;45374;52.746;6.304;2023-11-22T09:30:57;3.30;99.90
59556;DHT22;45374;52.746;6.304;2023-11-22T09:33:31;3.30;99.90
59556;DHT22;45374;52.746;6.304;2023-11-22T09:35:57;3.40;99.90
59556;DHT22;45374;52.746;6.304;2023-11-22T09:38:23;3.40;99.90
59556;DHT22;45374;52.746;6.304;2023-11-22T09:40:50;3.50;99.90
59556;DHT22;45374;52.746;6.304;2023-11-22T09:43:18;3.50;99.90
59556;DHT22;45374;52.746;6.304;2023-11-22T09:45:44;3.50;99.90
59556;DHT22;45374;52.746;6.304;2023-11-22T09:48:18;3.60;99.90
59556;DHT22;45374;52.746;6.304;2023-11-22T09:50:57;3.60;99.90
59556;DHT22;45374;52.746;6.304;2023-11-22T09:53:55;3.70;99.90
59556;DHT22;45374;52.746;6.304;2023-11-22T09:56:23;3.70;99.90
59556;DHT22;45374;52.746;6.304;2023-11-22T09:58:52;3.70;99.90
59556;DHT22;45374;52.746;6.304;2023-11-22T10:01:22;3.80;99.90
59556;DHT22;45374;52.746;6.304;2023-11-22T10:03:48;3.80;99.90
59556;DHT22;45374;52.746;6.304;2023-11-22T10:06:15;3.90;99.90
59556;DHT22;45374;52.746;6.304;2023-11-22T10:08:41;4.00;99.90
59556;DHT22;45374;52.746;6.304;2023-11-22T10:11:07;4.00;99.90
59556;DHT22;45374;52.746;6.304;2023-11-22T10:13:33;4.10;99.90
59556;DHT22;45374;52.746;6.304;2023-11-22T10:16:13;4.20;99.90
59556;DHT22;45374;52.746;6.304;2023-11-22T10:18:48;4.20;99.90
59556;DHT22;45374;52.746;6.304;2023-11-22T10:21:22;4.30;99.90
59556;DHT22;45374;52.746;6.304;2023-11-22T10:23:48;4.30;99.90
59556;DHT22;45374;52.746;6.304;2023-11-22T10:26:14;4.40;99.90
59556;DHT22;45374;52.746;6.304;2023-11-22T10:28:41;4.50;99.90
59556;DHT22;45374;52.746;6.304;2023-11-22T10:31:08;4.50;99.90
59556;DHT22;45374;52.746;6.304;2023-11-22T10:33:44;4.50;99.90
59556;DHT22;45374;52.746;6.304;2023-11-22T10:36:10;4.50;99.90
59556;DHT22;45374;52.746;6.304;2023-11-22T10:38:36;4.60;99.90
59556;DHT22;45374;52.746;6.304;2023-11-22T10:41:05;4.50;99.90
59556;DHT22;45374;52.746;6.304;2023-11-22T10:43:34;4.50;99.90
59556;DHT22;45374;52.746;6.304;2023-11-22T10:46:02;4.50;99.90
59556;DHT22;45374;52.746;6.304;2023-11-22T10:48:28;4.60;99.90
59556;DHT22;45374;52.746;6.304;2023-11-22T10:50:57;4.70;99.90
59556;DHT22;45374;52.746;6.304;2023-11-22T10:53:35;4.70;99.90
59556;DHT22;45374;52.746;6.304;2023-11-22T10:56:14;4.80;99.90
59556;DHT22;45374;52.746;6.304;2023-11-22T10:58:51;4.90;99.90
59556;DHT22;45374;52.746;6.304;2023-11-22T11:01:18;5.00;99.90
59556;DHT22;45374;52.746;6.304;2023-11-22T11:04:08;5.10;99.90
59556;DHT22;45374;52.746;6.304;2023-11-22T11:06:36;5.20;99.90
59556;DHT22;45374;52.746;6.304;2023-11-22T11:09:03;5.20;99.90
59556;DHT22;45374;52.746;6.304;2023-11-22T11:11:36;5.20;99.90
59556;DHT22;45374;52.746;6.304;2023-11-22T11:14:06;5.10;99.90
59556;DHT22;45374;52.746;6.304;2023-11-22T11:16:36;5.10;99.90
59556;DHT22;45374;52.746;6.304;2023-11-22T11:19:04;5.00;99.90
59556;DHT22;45374;52.746;6.304;2023-11-22T11:21:30;5.00;99.90
59556;DHT22;45374;52.746;6.304;2023-11-22T11:23:58;4.90;99.90
59556;DHT22;45374;52.746;6.304;2023-11-22T11:26:28;4.90;99.90
59556;DHT22;45374;52.746;6.304;2023-11-22T11:28:54;5.00;99.90
59556;DHT22;45374;52.746;6.304;2023-11-22T11:31:23;5.10;99.90
59556;DHT22;45374;52.746;6.304;2023-11-22T11:36:28;5.20;99.90
59556;DHT22;45374;52.746;6.304;2023-11-22T11:39:02;5.20;99.90
59556;DHT22;45374;52.746;6.304;2023-11-22T11:41:31;5.30;99.90
59556;DHT22;45374;52.746;6.304;2023-11-22T11:44:04;5.30;99.90
59556;DHT22;45374;52.746;6.304;2023-11-22T11:46:32;5.30;99.90
59556;DHT22;45374;52.746;6.304;2023-11-22T11:48:58;5.40;99.90
59556;DHT22;45374;52.746;6.304;2023-11-22T11:51:28;5.40;99.90
59556;DHT22;45374;52.746;6.304;2023-11-22T11:53:55;5.50;99.90
59556;DHT22;45374;52.746;6.304;2023-11-22T11:56:21;5.50;99.90
59556;DHT22;45374;52.746;6.304;2023-11-22T11:58:49;5.50;99.90
59556;DHT22;45374;52.746;6.304;2023-11-22T12:01:16;5.50;99.90
59556;DHT22;45374;52.746;6.304;2023-11-22T12:03:42;5.60;99.90
59556;DHT22;45374;52.746;6.304;2023-11-22T12:06:09;5.60;99.90
59556;DHT22;45374;52.746;6.304;2023-11-22T12:08:35;5.70;99.90
59556;DHT22;45374;52.746;6.304;2023-11-22T12:11:04;5.80;99.90
59556;DHT22;45374;52.746;6.304;2023-11-22T12:13:34;5.80;99.90
59556;DHT22;45374;52.746;6.304;2023-11-22T12:16:03;5.80;99.90
59556;DHT22;45374;52.746;6.304;2023-11-22T12:18:45;5.90;99.90
59556;DHT22;45374;52.746;6.304;2023-11-22T12:21:11;6.00;99.90
59556;DHT22;45374;52.746;6.304;2023-11-22T12:23:38;6.00;99.90
59556;DHT22;45374;52.746;6.304;2023-11-22T12:26:09;6.00;99.90
59556;DHT22;45374;52.746;6.304;2023-11-22T12:28:35;6.00;99.90
59556;DHT22;45374;52.746;6.304;2023-11-22T12:31:08;5.90;99.90
59556;DHT22;45374;52.746;6.304;2023-11-22T12:33:36;5.80;99.90
59556;DHT22;45374;52.746;6.304;2023-11-22T12:36:03;5.80;99.90
59556;DHT22;45374;52.746;6.304;2023-11-22T12:38:29;5.70;99.90
59556;DHT22;45374;52.746;6.304;2023-11-22T12:40:57;5.60;99.90
59556;DHT22;45374;52.746;6.304;2023-11-22T12:43:23;5.60;99.90
59556;DHT22;45374;52.746;6.304;2023-11-22T12:46:04;5.60;99.90
59556;DHT22;45374;52.746;6.304;2023-11-22T12:48:38;5.50;99.90
59556;DHT22;45374;52.746;6.304;2023-11-22T12:51:15;5.40;99.90
59556;DHT22;45374;52.746;6.304;2023-11-22T12:53:42;5.40;99.90
59556;DHT22;45374;52.746;6.304;2023-11-22T12:56:07;5.40;99.90
59556;DHT22;45374;52.746;6.304;2023-11-22T12:58:34;5.40;99.90
59556;DHT22;45374;52.746;6.304;2023-11-22T13:00:59;5.40;99.90
59556;DHT22;45374;52.746;6.304;2023-11-22T13:03:26;5.40;99.90
59556;DHT22;45374;52.746;6.304;2023-11-22T13:05:52;5.40;99.90
59556;DHT22;45374;52.746;6.304;2023-11-22T13:08:18;5.40;99.90
59556;DHT22;45374;52.746;6.304;2023-11-22T13:10:44;5.40;99.90
59556;DHT22;45374;52.746;6.304;2023-11-22T13:13:12;5.40;99.90
59556;DHT22;45374;52.746;6.304;2023-11-22T13:15:38;5.50;99.90
59556;DHT22;45374;52.746;6.304;2023-11-22T13:18:06;5.50;99.90
59556;DHT22;45374;52.746;6.304;2023-11-22T13:20:32;5.50;99.90
59556;DHT22;45374;52.746;6.304;2023-11-22T13:22:58;5.50;99.90
59556;DHT22;45374;52.746;6.304;2023-11-22T13:25:25;5.50;99.90
59556;DHT22;45374;52.746;6.304;2023-11-22T13:27:51;5.50;99.90
59556;DHT22;45374;52.746;6.304;2023-11-22T13:30:19;5.50;99.90
59556;DHT22;45374;52.746;6.304;2023-11-22T13:32:56;5.50;99.90
59556;DHT22;45374;52.746;6.304;2023-11-22T13:35:23;5.40;99.90
59556;DHT22;45374;52.746;6.304;2023-11-22T13:37:49;5.40;99.90
59556;DHT22;45374;52.746;6.304;2023-11-22T13:40:17;5.40;99.90
59556;DHT22;45374;52.746;6.304;2023-11-22T13:42:43;5.40;99.90
59556;DHT22;45374;52.746;6.304;2023-11-22T13:45:10;5.40;99.90
59556;DHT22;45374;52.746;6.304;2023-11-22T13:47:40;5.40;99.90
59556;DHT22;45374;52.746;6.304;2023-11-22T13:50:06;5.40;99.90
59556;DHT22;45374;52.746;6.304;2023-11-22T13:52:32;5.40;99.90
59556;DHT22;45374;52.746;6.304;2023-11-22T13:54:58;5.40;99.90
59556;DHT22;45374;52.746;6.304;2023-11-22T13:57:23;5.40;99.90
59556;DHT22;45374;52.746;6.304;2023-11-22T13:59:49;5.40;99.90
59556;DHT22;45374;52.746;6.304;2023-11-22T14:02:14;5.30;99.90
59556;DHT22;45374;52.746;6.304;2023-11-22T14:04:41;5.30;99.90
59556;DHT22;45374;52.746;6.304;2023-11-22T14:07:07;5.30;99.90
59556;DHT22;45374;52.746;6.304;2023-11-22T14:09:33;5.30;99.90
59556;DHT22;45374;52.746;6.304;2023-11-22T14:12:02;5.30;99.90
59556;DHT22;45374;52.746;6.304;2023-11-22T14:14:28;5.30;99.90
59556;DHT22;45374;52.746;6.304;2023-11-22T14:16:53;5.30;99.90
59556;DHT22;45374;52.746;6.304;2023-11-22T14:19:19;5.30;99.90
59556;DHT22;45374;52.746;6.304;2023-11-22T14:21:44;5.30;99.90
59556;DHT22;45374;52.746;6.304;2023-11-22T14:24:10;5.30;99.90
59556;DHT22;45374;52.746;6.304;2023-11-22T14:26:36;5.30;99.90
59556;DHT22;45374;52.746;6.304;2023-11-22T14:29:02;5.30;99.90
59556;DHT22;45374;52.746;6.304;2023-11-22T14:31:28;5.30;99.90
59556;DHT22;45374;52.746;6.304;2023-11-22T14:33:54;5.30;99.90
59556;DHT22;45374;52.746;6.304;2023-11-22T14:36:23;5.30;99.90
59556;DHT22;45374;52.746;6.304;2023-11-22T14:38:48;5.30;99.90
59556;DHT22;45374;52.746;6.304;2023-11-22T14:41:20;5.30;99.90
59556;DHT22;45374;52.746;6.304;2023-11-22T14:43:45;5.30;99.90
59556;DHT22;45374;52.746;6.304;2023-11-22T14:46:11;5.30;99.90
59556;DHT22;45374;52.746;6.304;2023-11-22T14:48:37;5.30;99.90
59556;DHT22;45374;52.746;6.304;2023-11-22T14:51:03;5.30;99.90
59556;DHT22;45374;52.746;6.304;2023-11-22T14:53:30;5.30;99.90
59556;DHT22;45374;52.746;6.304;2023-11-22T14:55:56;5.30;99.90
59556;DHT22;45374;52.746;6.304;2023-11-22T14:58:22;5.30;99.90
59556;DHT22;45374;52.746;6.304;2023-11-22T15:00:48;5.30;99.90
59556;DHT22;45374;52.746;6.304;2023-11-22T15:03:14;5.30;99.90
59556;DHT22;45374;52.746;6.304;2023-11-22T15:05:40;5.30;99.90
59556;DHT22;45374;52.746;6.304;2023-11-22T15:08:07;5.30;99.90
59556;DHT22;45374;52.746;6.304;2023-11-22T15:10:33;5.30;99.90
59556;DHT22;45374;52.746;6.304;2023-11-22T15:12:59;5.30;99.90
59556;DHT22;45374;52.746;6.304;2023-11-22T15:15:25;5.30;99.90
59556;DHT22;45374;52.746;6.304;2023-11-22T15:17:50;5.20;99.90
59556;DHT22;45374;52.746;6.304;2023-11-22T15:20:16;5.20;99.90
59556;DHT22;45374;52.746;6.304;2023-11-22T15:22:42;5.20;99.90
59556;DHT22;45374;52.746;6.304;2023-11-22T15:25:08;5.20;99.90
59556;DHT22;45374;52.746;6.304;2023-11-22T15:27:35;5.20;99.90
59556;DHT22;45374;52.746;6.304;2023-11-22T15:30:01;5.20;99.90
59556;DHT22;45374;52.746;6.304;2023-11-22T15:32:28;5.20;99.90
59556;DHT22;45374;52.746;6.304;2023-11-22T15:34:54;5.10;99.90
59556;DHT22;45374;52.746;6.304;2023-11-22T15:37:19;5.20;99.90
59556;DHT22;45374;52.746;6.304;2023-11-22T15:39:45;5.20;99.90
59556;DHT22;45374;52.746;6.304;2023-11-22T15:42:10;5.20;99.90
59556;DHT22;45374;52.746;6.304;2023-11-22T15:44:37;5.20;99.90